sensor_id;sensor_type;location;lat;lon;timestamp;pressure;altitude;pressure_sealevel;temperature;humidity
20889;BME280;10604;51.976;7.594;2023-12-07T00:02:22;101075.91;;;20.43;32.35
20889;BME280;10604;51.976;7.594;2023-12-07T00:04:47;101080.25;;;20.58;32.22
20889;BME280;10604;51.976;7.594;2023-12-07T00:07:12;101077.06;;;20.25;32.66
20889;BME280;10604;51.976;7.594;2023-12-07T00:09:37;101079.53;;;20.42;32.29
20889;BME280;10604;51.976;7.594;2023-12-07T00:12:03;101078.38;;;20.32;32.60
20889;BME280;10604;51.976;7.594;2023-12-07T00:14:28;101089.84;;;20.48;32.69
20889;BME280;10604;51.976;7.594;2023-12-07T00:16:53;101080.50;;;20.68;32.20
20889;BME280;10604;51.976;7.594;2023-12-07T00:19:19;101092.38;;;20.37;32.76
20889;BME280;10604;51.976;7.594;2023-12-07T00:21:44;101095.06;;;20.23;32.80
20889;BME280;10604;51.976;7.594;2023-12-07T00:24:09;101096.53;;;20.55;32.54
20889;BME280;10604;51.976;7.594;2023-12-07T00:26:35;101091.91;;;20.30;32.60
20889;BME280;10604;51.976;7.594;2023-12-07T00:29:00;101098.75;;;19.93;32.97
20889;BME280;10604;51.976;7.594;2023-12-07T00:31:25;101098.31;;;20.28;32.87
20889;BME280;10604;51.976;7.594;2023-12-07T00:33:51;101095.25;;;20.20;32.78
20889;BME280;10604;51.976;7.594;2023-12-07T00:36:16;101096.56;;;20.27;32.77
20889;BME280;10604;51.976;7.594;2023-12-07T00:38:41;101098.19;;;19.74;33.68
20889;BME280;10604;51.976;7.594;2023-12-07T00:41:06;101103.88;;;20.11;32.99
20889;BME280;10604;51.976;7.594;2023-12-07T00:43:32;101102.38;;;19.92;33.65
20889;BME280;10604;51.976;7.594;2023-12-07T00:45:57;101105.38;;;20.43;32.73
20889;BME280;10604;51.976;7.594;2023-12-07T00:48:23;101104.72;;;20.40;32.91
20889;BME280;10604;51.976;7.594;2023-12-07T00:50:48;101097.44;;;20.27;32.54
20889;BME280;10604;51.976;7.594;2023-12-07T00:53:13;101104.84;;;20.38;32.66
20889;BME280;10604;51.976;7.594;2023-12-07T00:55:38;101101.88;;;20.00;33.46
20889;BME280;10604;51.976;7.594;2023-12-07T00:58:05;101102.16;;;20.24;32.78
20889;BME280;10604;51.976;7.594;2023-12-07T01:00:30;101109.19;;;20.25;32.64
20889;BME280;10604;51.976;7.594;2023-12-07T01:02:55;101109.19;;;20.25;32.58
20889;BME280;10604;51.976;7.594;2023-12-07T01:05:21;101111.16;;;20.23;32.42
20889;BME280;10604;51.976;7.594;2023-12-07T01:07:46;101113.06;;;20.21;32.68
20889;BME280;10604;51.976;7.594;2023-12-07T01:10:11;101105.09;;;20.19;32.85
20889;BME280;10604;51.976;7.594;2023-12-07T01:12:36;101100.59;;;20.20;32.87
20889;BME280;10604;51.976;7.594;2023-12-07T01:15:02;101115.34;;;20.27;32.59
20889;BME280;10604;51.976;7.594;2023-12-07T01:17:27;101122.28;;;19.88;33.13
20889;BME280;10604;51.976;7.594;2023-12-07T01:19:52;101118.97;;;20.40;32.66
20889;BME280;10604;51.976;7.594;2023-12-07T01:22:18;101116.91;;;20.17;33.05
20889;BME280;10604;51.976;7.594;2023-12-07T01:24:43;101129.31;;;19.89;33.60
20889;BME280;10604;51.976;7.594;2023-12-07T01:27:09;101124.16;;;20.15;33.13
20889;BME280;10604;51.976;7.594;2023-12-07T01:29:34;101122.44;;;20.14;33.03
20889;BME280;10604;51.976;7.594;2023-12-07T01:31:59;101124.13;;;20.29;32.71
20889;BME280;10604;51.976;7.594;2023-12-07T01:34:24;101126.59;;;20.32;32.89
20889;BME280;10604;51.976;7.594;2023-12-07T01:36:50;101132.38;;;20.12;33.05
20889;BME280;10604;51.976;7.594;2023-12-07T01:39:15;101137.94;;;20.09;33.03
20889;BME280;10604;51.976;7.594;2023-12-07T01:41:40;101126.84;;;20.15;33.08
20889;BME280;10604;51.976;7.594;2023-12-07T01:44:06;101124.94;;;19.74;33.79
20889;BME280;10604;51.976;7.594;2023-12-07T01:46:31;101134.09;;;20.13;33.36
20889;BME280;10604;51.976;7.594;2023-12-07T01:48:57;101130.84;;;20.22;33.13
20889;BME280;10604;51.976;7.594;2023-12-07T01:51:22;101130.66;;;20.11;33.52
20889;BME280;10604;51.976;7.594;2023-12-07T01:53:48;101138.13;;;19.91;33.39
20889;BME280;10604;51.976;7.594;2023-12-07T01:56:14;101134.50;;;19.78;34.02
20889;BME280;10604;51.976;7.594;2023-12-07T01:58:41;101140.53;;;20.10;33.33
20889;BME280;10604;51.976;7.594;2023-12-07T02:01:06;101131.25;;;20.16;33.20
20889;BME280;10604;51.976;7.594;2023-12-07T02:03:31;101130.09;;;20.34;33.12
20889;BME280;10604;51.976;7.594;2023-12-07T02:05:57;101138.03;;;20.07;33.50
20889;BME280;10604;51.976;7.594;2023-12-07T02:08:22;101138.91;;;20.08;33.34
20889;BME280;10604;51.976;7.594;2023-12-07T02:10:48;101144.41;;;19.62;34.08
20889;BME280;10604;51.976;7.594;2023-12-07T02:13:13;101144.25;;;19.05;34.97
20889;BME280;10604;51.976;7.594;2023-12-07T02:15:38;101146.56;;;20.00;33.78
20889;BME280;10604;51.976;7.594;2023-12-07T02:20:46;101147.13;;;19.90;33.54
20889;BME280;10604;51.976;7.594;2023-12-07T02:23:17;101146.06;;;20.21;33.24
20889;BME280;10604;51.976;7.594;2023-12-07T02:25:51;101163.47;;;19.72;34.07
20889;BME280;10604;51.976;7.594;2023-12-07T02:28:16;101159.56;;;19.91;33.53
20889;BME280;10604;51.976;7.594;2023-12-07T02:30:42;101161.44;;;19.75;33.98
20889;BME280;10604;51.976;7.594;2023-12-07T02:33:07;101147.81;;;20.08;33.57
20889;BME280;10604;51.976;7.594;2023-12-07T02:35:34;101154.78;;;19.97;33.45
20889;BME280;10604;51.976;7.594;2023-12-07T02:38:00;101153.06;;;20.38;33.40
20889;BME280;10604;51.976;7.594;2023-12-07T02:40:26;101158.75;;;20.32;33.16
20889;BME280;10604;51.976;7.594;2023-12-07T02:42:55;101153.47;;;19.45;33.84
20889;BME280;10604;51.976;7.594;2023-12-07T02:45:21;101150.00;;;20.02;33.55
20889;BME280;10604;51.976;7.594;2023-12-07T02:47:46;101147.97;;;20.05;33.36
20889;BME280;10604;51.976;7.594;2023-12-07T02:50:12;101158.75;;;19.61;34.24
20889;BME280;10604;51.976;7.594;2023-12-07T02:52:38;101157.34;;;19.40;34.49
20889;BME280;10604;51.976;7.594;2023-12-07T02:55:03;101158.22;;;19.84;33.60
20889;BME280;10604;51.976;7.594;2023-12-07T02:57:29;101158.88;;;18.84;35.15
20889;BME280;10604;51.976;7.594;2023-12-07T02:59:55;101156.28;;;19.58;34.31
20889;BME280;10604;51.976;7.594;2023-12-07T03:02:20;101163.97;;;20.07;33.49
20889;BME280;10604;51.976;7.594;2023-12-07T03:04:45;101158.31;;;19.97;33.27
20889;BME280;10604;51.976;7.594;2023-12-07T03:07:10;101164.41;;;19.57;33.89
20889;BME280;10604;51.976;7.594;2023-12-07T03:09:36;101164.34;;;19.12;35.01
20889;BME280;10604;51.976;7.594;2023-12-07T03:12:01;101161.09;;;19.81;33.75
20889;BME280;10604;51.976;7.594;2023-12-07T03:14:26;101157.81;;;20.19;33.19
20889;BME280;10604;51.976;7.594;2023-12-07T03:16:52;101153.41;;;19.75;33.87
20889;BME280;10604;51.976;7.594;2023-12-07T03:19:17;101162.06;;;19.80;33.79
20889;BME280;10604;51.976;7.594;2023-12-07T03:21:42;101166.50;;;19.51;33.95
20889;BME280;10604;51.976;7.594;2023-12-07T03:24:10;101151.13;;;19.98;33.21
20889;BME280;10604;51.976;7.594;2023-12-07T03:26:36;101152.53;;;19.46;34.41
20889;BME280;10604;51.976;7.594;2023-12-07T03:29:01;101153.84;;;18.94;34.84
20889;BME280;10604;51.976;7.594;2023-12-07T03:31:27;101167.88;;;19.43;34.30
20889;BME280;10604;51.976;7.594;2023-12-07T03:33:53;101162.66;;;18.96;34.88
20889;BME280;10604;51.976;7.594;2023-12-07T03:36:18;101163.91;;;19.50;33.90
20889;BME280;10604;51.976;7.594;2023-12-07T03:38:43;101166.63;;;19.78;33.65
20889;BME280;10604;51.976;7.594;2023-12-07T03:41:08;101171.03;;;19.79;33.36
20889;BME280;10604;51.976;7.594;2023-12-07T03:43:34;101159.56;;;19.91;33.19
20889;BME280;10604;51.976;7.594;2023-12-07T03:45:59;101159.59;;;19.47;34.07
20889;BME280;10604;51.976;7.594;2023-12-07T03:48:24;101157.34;;;18.80;35.00
20889;BME280;10604;51.976;7.594;2023-12-07T03:50:49;101157.78;;;18.57;35.27
20889;BME280;10604;51.976;7.594;2023-12-07T03:53:15;101158.59;;;18.26;36.14
20889;BME280;10604;51.976;7.594;2023-12-07T03:55:40;101157.84;;;18.39;36.07
20889;BME280;10604;51.976;7.594;2023-12-07T03:58:05;101151.03;;;19.41;34.34
20889;BME280;10604;51.976;7.594;2023-12-07T04:00:33;101159.38;;;19.80;33.70
20889;BME280;10604;51.976;7.594;2023-12-07T04:02:58;101162.44;;;20.17;33.20
20889;BME280;10604;51.976;7.594;2023-12-07T04:05:23;101150.63;;;19.33;34.00
20889;BME280;10604;51.976;7.594;2023-12-07T04:07:49;101149.00;;;18.06;35.51
20889;BME280;10604;51.976;7.594;2023-12-07T04:10:14;101151.72;;;18.53;35.65
20889;BME280;10604;51.976;7.594;2023-12-07T04:12:40;101154.75;;;18.63;35.21
20889;BME280;10604;51.976;7.594;2023-12-07T04:15:05;101151.75;;;19.14;34.46
20889;BME280;10604;51.976;7.594;2023-12-07T04:17:31;101160.06;;;18.31;35.75
20889;BME280;10604;51.976;7.594;2023-12-07T04:19:56;101172.13;;;18.23;36.04
20889;BME280;10604;51.976;7.594;2023-12-07T04:22:21;101162.56;;;19.27;34.41
20889;BME280;10604;51.976;7.594;2023-12-07T04:24:46;101167.06;;;19.27;34.11
20889;BME280;10604;51.976;7.594;2023-12-07T04:27:12;101170.25;;;19.03;34.58
20889;BME280;10604;51.976;7.594;2023-12-07T04:29:37;101176.47;;;19.04;34.90
20889;BME280;10604;51.976;7.594;2023-12-07T04:32:02;101183.91;;;17.86;36.18
20889;BME280;10604;51.976;7.594;2023-12-07T04:34:27;101181.25;;;18.97;34.55
20889;BME280;10604;51.976;7.594;2023-12-07T04:36:53;101196.84;;;19.66;33.43
20889;BME280;10604;51.976;7.594;2023-12-07T04:39:18;101196.84;;;19.80;33.67
20889;BME280;10604;51.976;7.594;2023-12-07T04:41:43;101198.16;;;19.13;34.26
20889;BME280;10604;51.976;7.594;2023-12-07T04:44:08;101207.59;;;18.09;36.16
20889;BME280;10604;51.976;7.594;2023-12-07T04:46:34;101211.91;;;17.62;37.06
20889;BME280;10604;51.976;7.594;2023-12-07T04:49:00;101206.19;;;17.85;36.20
20889;BME280;10604;51.976;7.594;2023-12-07T04:51:25;101211.47;;;18.19;36.01
20889;BME280;10604;51.976;7.594;2023-12-07T04:53:50;101208.91;;;18.33;35.73
20889;BME280;10604;51.976;7.594;2023-12-07T04:56:15;101196.84;;;18.75;35.14
20889;BME280;10604;51.976;7.594;2023-12-07T04:58:41;101204.38;;;19.44;34.27
20889;BME280;10604;51.976;7.594;2023-12-07T05:01:06;101195.28;;;18.71;34.88
20889;BME280;10604;51.976;7.594;2023-12-07T05:03:32;101201.97;;;19.09;34.45
20889;BME280;10604;51.976;7.594;2023-12-07T05:05:57;101206.81;;;18.87;35.00
20889;BME280;10604;51.976;7.594;2023-12-07T05:08:23;101205.16;;;19.46;34.04
20889;BME280;10604;51.976;7.594;2023-12-07T05:10:48;101212.28;;;18.37;35.14
20889;BME280;10604;51.976;7.594;2023-12-07T05:13:13;101208.84;;;18.51;35.30
20889;BME280;10604;51.976;7.594;2023-12-07T05:15:38;101212.66;;;19.09;34.50
20889;BME280;10604;51.976;7.594;2023-12-07T05:18:04;101206.25;;;19.28;33.95
20889;BME280;10604;51.976;7.594;2023-12-07T05:20:29;101205.19;;;18.69;34.06
20889;BME280;10604;51.976;7.594;2023-12-07T05:22:55;101206.19;;;18.02;35.68
20889;BME280;10604;51.976;7.594;2023-12-07T05:25:21;101198.59;;;18.90;34.51
20889;BME280;10604;51.976;7.594;2023-12-07T05:27:46;101193.09;;;19.09;34.22
20889;BME280;10604;51.976;7.594;2023-12-07T05:30:11;101204.28;;;18.53;34.80
20889;BME280;10604;51.976;7.594;2023-12-07T05:32:37;101202.34;;;18.72;34.80
20889;BME280;10604;51.976;7.594;2023-12-07T05:35:03;101202.16;;;18.91;34.34
20889;BME280;10604;51.976;7.594;2023-12-07T05:37:28;101202.91;;;17.97;35.58
20889;BME280;10604;51.976;7.594;2023-12-07T05:39:54;101197.69;;;18.60;34.93
20889;BME280;10604;51.976;7.594;2023-12-07T05:42:19;101199.31;;;19.09;34.16
20889;BME280;10604;51.976;7.594;2023-12-07T05:44:44;101202.72;;;18.00;35.80
20889;BME280;10604;51.976;7.594;2023-12-07T05:47:09;101214.06;;;17.71;36.05
20889;BME280;10604;51.976;7.594;2023-12-07T05:49:35;101197.94;;;16.28;37.85
20889;BME280;10604;51.976;7.594;2023-12-07T05:52:00;101203.38;;;17.19;37.05
20889;BME280;10604;51.976;7.594;2023-12-07T05:54:26;101207.97;;;17.69;35.80
20889;BME280;10604;51.976;7.594;2023-12-07T05:56:51;101204.31;;;18.20;35.52
20889;BME280;10604;51.976;7.594;2023-12-07T05:59:16;101202.13;;;19.06;34.35
20889;BME280;10604;51.976;7.594;2023-12-07T06:01:42;101207.28;;;18.31;35.08
20889;BME280;10604;51.976;7.594;2023-12-07T06:04:08;101211.56;;;18.33;35.05
20889;BME280;10604;51.976;7.594;2023-12-07T06:06:34;101216.03;;;17.14;36.43
20889;BME280;10604;51.976;7.594;2023-12-07T06:08:59;101217.84;;;17.67;36.22
20889;BME280;10604;51.976;7.594;2023-12-07T06:11:24;101219.88;;;18.45;34.99
20889;BME280;10604;51.976;7.594;2023-12-07T06:13:50;101215.00;;;17.87;35.84
20889;BME280;10604;51.976;7.594;2023-12-07T06:16:15;101221.44;;;18.49;34.68
20889;BME280;10604;51.976;7.594;2023-12-07T06:18:42;101219.41;;;18.85;34.37
20889;BME280;10604;51.976;7.594;2023-12-07T06:21:07;101219.16;;;18.74;34.69
20889;BME280;10604;51.976;7.594;2023-12-07T06:23:33;101209.72;;;18.98;34.34
20889;BME280;10604;51.976;7.594;2023-12-07T06:25:59;101226.22;;;18.26;34.94
20889;BME280;10604;51.976;7.594;2023-12-07T06:28:24;101213.13;;;18.86;34.34
20889;BME280;10604;51.976;7.594;2023-12-07T06:30:49;101231.06;;;18.35;35.25
20889;BME280;10604;51.976;7.594;2023-12-07T06:33:14;101228.69;;;18.47;35.08
20889;BME280;10604;51.976;7.594;2023-12-07T06:35:40;101234.63;;;18.03;35.96
20889;BME280;10604;51.976;7.594;2023-12-07T06:38:05;101229.25;;;17.34;36.84
20889;BME280;10604;51.976;7.594;2023-12-07T06:40:30;101234.47;;;17.54;36.90
20889;BME280;10604;51.976;7.594;2023-12-07T06:42:56;101232.97;;;16.77;37.97
20889;BME280;10604;51.976;7.594;2023-12-07T06:45:21;101230.00;;;16.64;37.93
20889;BME280;10604;51.976;7.594;2023-12-07T06:47:47;101231.09;;;17.15;37.21
20889;BME280;10604;51.976;7.594;2023-12-07T06:50:12;101238.34;;;17.30;36.68
20889;BME280;10604;51.976;7.594;2023-12-07T06:52:38;101240.56;;;17.91;36.16
20889;BME280;10604;51.976;7.594;2023-12-07T06:55:03;101236.84;;;18.61;35.24
20889;BME280;10604;51.976;7.594;2023-12-07T06:57:29;101242.81;;;18.49;35.21
20889;BME280;10604;51.976;7.594;2023-12-07T06:59:54;101250.31;;;18.09;35.67
20889;BME280;10604;51.976;7.594;2023-12-07T07:02:19;101243.63;;;16.96;37.03
20889;BME280;10604;51.976;7.594;2023-12-07T07:04:45;101252.84;;;17.95;36.49
20889;BME280;10604;51.976;7.594;2023-12-07T07:07:10;101252.50;;;17.84;36.40
20889;BME280;10604;51.976;7.594;2023-12-07T07:09:35;101248.38;;;19.08;34.73
20889;BME280;10604;51.976;7.594;2023-12-07T07:12:01;101243.69;;;19.28;34.44
20889;BME280;10604;51.976;7.594;2023-12-07T07:14:26;101237.41;;;19.29;34.12
20889;BME280;10604;51.976;7.594;2023-12-07T07:16:51;101245.06;;;19.35;34.06
20889;BME280;10604;51.976;7.594;2023-12-07T07:19:17;101238.56;;;18.93;34.49
20889;BME280;10604;51.976;7.594;2023-12-07T07:21:42;101232.94;;;19.13;34.55
20889;BME280;10604;51.976;7.594;2023-12-07T07:24:08;101249.25;;;18.12;36.47
20889;BME280;10604;51.976;7.594;2023-12-07T07:26:33;101238.75;;;18.42;36.33
20889;BME280;10604;51.976;7.594;2023-12-07T07:28:58;101243.75;;;18.96;35.04
20889;BME280;10604;51.976;7.594;2023-12-07T07:31:24;101241.16;;;18.79;35.22
20889;BME280;10604;51.976;7.594;2023-12-07T07:33:49;101234.00;;;18.80;35.40
20889;BME280;10604;51.976;7.594;2023-12-07T07:36:14;101231.72;;;19.65;34.38
20889;BME280;10604;51.976;7.594;2023-12-07T07:38:40;101236.47;;;19.14;34.51
20889;BME280;10604;51.976;7.594;2023-12-07T07:41:05;101232.50;;;19.05;34.78
20889;BME280;10604;51.976;7.594;2023-12-07T07:43:30;101237.34;;;18.99;34.86
20889;BME280;10604;51.976;7.594;2023-12-07T07:45:56;101232.03;;;19.29;34.54
20889;BME280;10604;51.976;7.594;2023-12-07T07:48:21;101228.78;;;19.24;34.26
20889;BME280;10604;51.976;7.594;2023-12-07T07:50:47;101240.84;;;18.52;35.72
20889;BME280;10604;51.976;7.594;2023-12-07T07:53:12;101246.13;;;19.01;35.11
20889;BME280;10604;51.976;7.594;2023-12-07T07:55:37;101237.31;;;19.14;34.91
20889;BME280;10604;51.976;7.594;2023-12-07T07:58:03;101233.13;;;19.10;35.13
20889;BME280;10604;51.976;7.594;2023-12-07T08:00:28;101246.91;;;19.64;34.39
20889;BME280;10604;51.976;7.594;2023-12-07T08:02:53;101236.59;;;19.27;34.96
20889;BME280;10604;51.976;7.594;2023-12-07T08:05:18;101242.63;;;19.46;34.41
20889;BME280;10604;51.976;7.594;2023-12-07T08:07:44;101236.88;;;19.53;34.60
20889;BME280;10604;51.976;7.594;2023-12-07T08:10:09;101238.38;;;19.87;34.26
20889;BME280;10604;51.976;7.594;2023-12-07T08:12:34;101236.94;;;19.36;34.43
20889;BME280;10604;51.976;7.594;2023-12-07T08:15:00;101230.38;;;20.16;33.94
20889;BME280;10604;51.976;7.594;2023-12-07T08:17:25;101231.88;;;19.32;34.44
20889;BME280;10604;51.976;7.594;2023-12-07T08:19:51;101244.31;;;18.21;36.39
20889;BME280;10604;51.976;7.594;2023-12-07T08:22:17;101250.06;;;18.47;35.98
20889;BME280;10604;51.976;7.594;2023-12-07T08:24:42;101245.97;;;18.88;35.18
20889;BME280;10604;51.976;7.594;2023-12-07T08:27:07;101242.84;;;19.11;35.36
20889;BME280;10604;51.976;7.594;2023-12-07T08:29:32;101245.75;;;19.38;35.04
20889;BME280;10604;51.976;7.594;2023-12-07T08:31:58;101243.22;;;18.90;35.88
20889;BME280;10604;51.976;7.594;2023-12-07T08:34:23;101244.34;;;19.47;34.96
20889;BME280;10604;51.976;7.594;2023-12-07T08:36:49;101233.19;;;19.25;34.68
20889;BME280;10604;51.976;7.594;2023-12-07T08:39:15;101234.09;;;20.13;33.85
20889;BME280;10604;51.976;7.594;2023-12-07T08:41:40;101228.09;;;20.24;33.85
20889;BME280;10604;51.976;7.594;2023-12-07T08:44:05;101226.56;;;20.34;33.97
20889;BME280;10604;51.976;7.594;2023-12-07T08:46:30;101238.22;;;20.47;33.89
20889;BME280;10604;51.976;7.594;2023-12-07T08:48:56;101243.31;;;20.38;33.75
20889;BME280;10604;51.976;7.594;2023-12-07T08:51:22;101242.03;;;20.71;33.48
20889;BME280;10604;51.976;7.594;2023-12-07T08:53:47;101243.97;;;20.55;33.40
20889;BME280;10604;51.976;7.594;2023-12-07T08:56:12;101246.25;;;20.61;33.63
20889;BME280;10604;51.976;7.594;2023-12-07T08:58:38;101248.16;;;20.88;33.34
20889;BME280;10604;51.976;7.594;2023-12-07T09:01:03;101240.91;;;20.61;33.53
20889;BME280;10604;51.976;7.594;2023-12-07T09:03:28;101249.09;;;20.87;33.46
20889;BME280;10604;51.976;7.594;2023-12-07T09:05:56;101242.50;;;20.78;33.35
20889;BME280;10604;51.976;7.594;2023-12-07T09:08:22;101241.84;;;20.46;33.62
20889;BME280;10604;51.976;7.594;2023-12-07T09:10:47;101243.50;;;20.35;33.74
20889;BME280;10604;51.976;7.594;2023-12-07T09:13:15;101240.72;;;20.64;33.44
20889;BME280;10604;51.976;7.594;2023-12-07T09:15:40;101251.81;;;20.30;33.92
20889;BME280;10604;51.976;7.594;2023-12-07T09:18:05;101252.75;;;20.71;33.40
20889;BME280;10604;51.976;7.594;2023-12-07T09:20:30;101245.13;;;20.65;33.44
20889;BME280;10604;51.976;7.594;2023-12-07T09:22:56;101249.25;;;20.98;33.43
20889;BME280;10604;51.976;7.594;2023-12-07T09:25:22;101251.00;;;20.85;33.19
20889;BME280;10604;51.976;7.594;2023-12-07T09:27:47;101257.38;;;20.55;33.32
20889;BME280;10604;51.976;7.594;2023-12-07T09:30:13;101262.25;;;21.04;33.08
20889;BME280;10604;51.976;7.594;2023-12-07T09:32:41;101263.03;;;21.06;33.12
20889;BME280;10604;51.976;7.594;2023-12-07T09:35:08;101248.19;;;20.74;33.48
20889;BME280;10604;51.976;7.594;2023-12-07T09:37:35;101250.25;;;20.83;32.75
20889;BME280;10604;51.976;7.594;2023-12-07T09:40:00;101256.38;;;21.53;32.70
20889;BME280;10604;51.976;7.594;2023-12-07T09:42:26;101256.94;;;21.58;32.48
20889;BME280;10604;51.976;7.594;2023-12-07T09:44:51;101253.78;;;21.51;32.84
20889;BME280;10604;51.976;7.594;2023-12-07T09:47:17;101258.25;;;21.90;32.45
20889;BME280;10604;51.976;7.594;2023-12-07T09:49:42;101260.75;;;21.93;31.86
20889;BME280;10604;51.976;7.594;2023-12-07T09:52:08;101253.66;;;21.92;32.13
20889;BME280;10604;51.976;7.594;2023-12-07T09:54:33;101249.56;;;21.74;32.37
20889;BME280;10604;51.976;7.594;2023-12-07T09:57:00;101251.25;;;21.75;31.99
20889;BME280;10604;51.976;7.594;2023-12-07T09:59:25;101249.19;;;22.05;31.99
20889;BME280;10604;51.976;7.594;2023-12-07T10:01:51;101242.16;;;21.90;32.09
20889;BME280;10604;51.976;7.594;2023-12-07T10:04:16;101238.72;;;21.88;31.73
20889;BME280;10604;51.976;7.594;2023-12-07T10:06:43;101233.50;;;21.99;31.69
20889;BME280;10604;51.976;7.594;2023-12-07T10:09:12;101227.59;;;21.01;32.56
20889;BME280;10604;51.976;7.594;2023-12-07T10:11:38;101222.47;;;21.64;32.45
20889;BME280;10604;51.976;7.594;2023-12-07T10:14:05;101215.16;;;21.66;32.24
20889;BME280;10604;51.976;7.594;2023-12-07T10:16:30;101222.66;;;21.61;32.09
20889;BME280;10604;51.976;7.594;2023-12-07T10:19:11;101216.81;;;21.94;32.04
20889;BME280;10604;51.976;7.594;2023-12-07T10:21:38;101207.47;;;22.00;31.70
20889;BME280;10604;51.976;7.594;2023-12-07T10:24:03;101218.53;;;22.20;31.59
20889;BME280;10604;51.976;7.594;2023-12-07T10:26:28;101206.81;;;22.21;31.74
20889;BME280;10604;51.976;7.594;2023-12-07T10:28:55;101208.09;;;22.03;32.10
20889;BME280;10604;51.976;7.594;2023-12-07T10:31:20;101210.91;;;22.14;31.84
20889;BME280;10604;51.976;7.594;2023-12-07T10:33:47;101199.72;;;21.95;31.82
20889;BME280;10604;51.976;7.594;2023-12-07T10:36:13;101202.94;;;22.25;31.34
20889;BME280;10604;51.976;7.594;2023-12-07T10:38:38;101199.53;;;21.98;31.84
20889;BME280;10604;51.976;7.594;2023-12-07T10:41:06;101197.88;;;21.96;32.03
20889;BME280;10604;51.976;7.594;2023-12-07T10:43:36;101200.69;;;22.19;31.36
20889;BME280;10604;51.976;7.594;2023-12-07T10:46:02;101204.66;;;22.26;31.79
20889;BME280;10604;51.976;7.594;2023-12-07T10:48:30;101188.44;;;22.77;31.34
20889;BME280;10604;51.976;7.594;2023-12-07T10:50:57;101184.31;;;22.48;30.85
20889;BME280;10604;51.976;7.594;2023-12-07T10:53:28;101183.97;;;21.38;31.62
20889;BME280;10604;51.976;7.594;2023-12-07T10:55:55;101185.03;;;21.36;31.93
20889;BME280;10604;51.976;7.594;2023-12-07T10:58:21;101169.63;;;22.15;31.72
20889;BME280;10604;51.976;7.594;2023-12-07T11:00:47;101179.59;;;21.63;31.76
20889;BME280;10604;51.976;7.594;2023-12-07T11:03:16;101164.56;;;22.60;31.34
20889;BME280;10604;51.976;7.594;2023-12-07T11:05:46;101153.88;;;23.08;30.71
20889;BME280;10604;51.976;7.594;2023-12-07T11:11:04;101153.31;;;22.91;30.51
20889;BME280;10604;51.976;7.594;2023-12-07T11:13:34;101149.69;;;22.67;30.80
20889;BME280;10604;51.976;7.594;2023-12-07T11:16:00;101141.69;;;22.91;30.67
20889;BME280;10604;51.976;7.594;2023-12-07T11:18:26;101139.69;;;22.33;31.08
20889;BME280;10604;51.976;7.594;2023-12-07T11:20:52;101135.06;;;22.71;30.57
20889;BME280;10604;51.976;7.594;2023-12-07T11:23:18;101129.19;;;22.66;30.67
20889;BME280;10604;51.976;7.594;2023-12-07T11:25:44;101125.09;;;22.37;30.75
20889;BME280;10604;51.976;7.594;2023-12-07T11:28:10;101123.72;;;22.55;30.70
20889;BME280;10604;51.976;7.594;2023-12-07T11:30:36;101129.34;;;22.52;31.00
20889;BME280;10604;51.976;7.594;2023-12-07T11:33:05;101122.78;;;22.67;31.04
20889;BME280;10604;51.976;7.594;2023-12-07T11:35:30;101117.63;;;22.77;30.71
20889;BME280;10604;51.976;7.594;2023-12-07T11:38:08;101118.53;;;22.64;30.57
20889;BME280;10604;51.976;7.594;2023-12-07T11:40:42;101112.34;;;22.39;30.77
20889;BME280;10604;51.976;7.594;2023-12-07T11:43:08;101101.59;;;22.39;30.98
20889;BME280;10604;51.976;7.594;2023-12-07T11:45:39;101102.34;;;22.04;31.27
20889;BME280;10604;51.976;7.594;2023-12-07T11:48:12;101096.56;;;21.85;31.29
20889;BME280;10604;51.976;7.594;2023-12-07T11:50:53;101099.69;;;21.79;31.64
20889;BME280;10604;51.976;7.594;2023-12-07T11:53:21;101087.09;;;21.92;31.54
20889;BME280;10604;51.976;7.594;2023-12-07T11:55:46;101087.94;;;22.05;31.61
20889;BME280;10604;51.976;7.594;2023-12-07T11:58:12;101081.50;;;21.95;31.12
20889;BME280;10604;51.976;7.594;2023-12-07T12:00:37;101071.63;;;22.08;31.40
20889;BME280;10604;51.976;7.594;2023-12-07T12:03:03;101069.66;;;22.10;31.40
20889;BME280;10604;51.976;7.594;2023-12-07T12:05:28;101065.94;;;22.37;31.27
20889;BME280;10604;51.976;7.594;2023-12-07T12:07:54;101061.91;;;22.18;31.00
20889;BME280;10604;51.976;7.594;2023-12-07T12:10:20;101060.78;;;22.34;30.98
20889;BME280;10604;51.976;7.594;2023-12-07T12:12:47;101055.84;;;22.27;31.12
20889;BME280;10604;51.976;7.594;2023-12-07T12:15:13;101052.41;;;22.25;31.49
20889;BME280;10604;51.976;7.594;2023-12-07T12:17:38;101052.72;;;21.97;31.52
20889;BME280;10604;51.976;7.594;2023-12-07T12:20:03;101048.75;;;22.26;31.50
20889;BME280;10604;51.976;7.594;2023-12-07T12:22:29;101045.81;;;21.93;31.73
20889;BME280;10604;51.976;7.594;2023-12-07T12:24:54;101047.34;;;21.97;32.07
20889;BME280;10604;51.976;7.594;2023-12-07T12:27:20;101045.84;;;22.30;31.25
20889;BME280;10604;51.976;7.594;2023-12-07T12:29:45;101041.25;;;22.19;31.83
20889;BME280;10604;51.976;7.594;2023-12-07T12:32:11;101035.41;;;22.25;31.58
20889;BME280;10604;51.976;7.594;2023-12-07T12:34:36;101042.03;;;22.45;31.35
20889;BME280;10604;51.976;7.594;2023-12-07T12:37:02;101034.63;;;22.36;31.62
20889;BME280;10604;51.976;7.594;2023-12-07T12:39:30;101024.69;;;22.49;31.54
20889;BME280;10604;51.976;7.594;2023-12-07T12:41:57;101017.47;;;22.25;31.84
20889;BME280;10604;51.976;7.594;2023-12-07T12:44:23;101025.94;;;22.56;31.44
20889;BME280;10604;51.976;7.594;2023-12-07T12:46:48;101022.91;;;22.84;30.96
20889;BME280;10604;51.976;7.594;2023-12-07T12:49:13;101020.00;;;22.16;31.74